Portland — WDG2201 — position and weather

sailwx.info

Track history (hours):
 
Tides and Currents Weather Stations Pressure Air Temp Water Temp Dewpoint Dewpoint Depression Visibility Wind Speed Wind Dir Waves Ship Positions

Portland

Owner: Shaver Transportation Company, Portland, OR. More information available from US FCC via Universal Licensing System and Coast Guard Vessel Documentation Center.

Last reported at 2016-Dec-03 21:34 UTC. Time now 2016-Dec-03 21:54 UTC.
Position N 45°46' W 122°46'.

Length 27 m; draft 4 m.

Type: Towing. MMSI: 367315814.

Date/timePositionNaut miles runAvg speedWind from/ knotsBaromVisibWave heightAir tempDewpointWater temp
2016-Dec-03 21:34N 45°46' W 122°46'1010.4
2016-Dec-03 20:33N 45°56' W 122°48'3 2.8
2016-Dec-03 19:34N 45°59' W 122°50'0 0.1
2016-Dec-03 18:33N 45°59' W 122°50'3 3.4
2016-Dec-03 17:33N 46°02' W 122°53'5 4.7
2016-Dec-03 16:34N 46°06' W 122°56'0 0.2
2016-Dec-03 15:33N 46°06' W 122°56'1 0.5
2016-Dec-03 14:33N 46°05' W 122°56'0 0.0
2016-Dec-03 13:34N 46°05' W 122°56'0 0.0
2016-Dec-03 12:33N 46°05' W 122°56'0 0.0
2016-Dec-03 11:33N 46°05' W 122°56'0 0.0
2016-Dec-03 10:34N 46°05' W 122°56'0 0.0
2016-Dec-03 09:34N 46°05' W 122°56'0 0.0
2016-Dec-03 08:34N 46°05' W 122°56'0 0.0
2016-Dec-03 07:34N 46°05' W 122°56'0 0.0
2016-Dec-03 06:34N 46°05' W 122°56'0 0.0
2016-Dec-03 05:34N 46°05' W 122°56'0 0.0
2016-Dec-03 04:34N 46°05' W 122°56'0 0.0
2016-Dec-03 03:33N 46°05' W 122°56'0 0.0
2016-Dec-03 02:34N 46°05' W 122°56'0 0.0
2016-Dec-03 01:33N 46°05' W 122°56'0 0.0
2016-Dec-03 00:33N 46°05' W 122°56'0 0.0
2016-Dec-02 23:34N 46°05' W 122°56'0 0.0
2016-Dec-02 22:33N 46°05' W 122°56'0 0.0
2016-Dec-02 21:34N 46°05' W 122°56'0 0.0
2016-Dec-02 20:33N 46°05' W 122°56'0 0.0
2016-Dec-02 19:33N 46°05' W 122°56'0 0.0
2016-Dec-02 18:34N 46°05' W 122°56'0 0.0
2016-Dec-02 17:33N 46°05' W 122°56'0 0.0
2016-Dec-02 16:34N 46°05' W 122°56'0 0.0
2016-Dec-02 15:33N 46°05' W 122°56'0 0.0
2016-Dec-02 14:33N 46°05' W 122°56'0 0.0
2016-Dec-02 13:34N 46°05' W 122°56'0 0.0
2016-Dec-02 12:33N 46°05' W 122°56'0 0.0
2016-Dec-02 11:33N 46°05' W 122°56'0 0.0
2016-Dec-02 10:33N 46°05' W 122°56'0 0.0
2016-Dec-02 09:26N 46°05' W 122°56'0 0.0
2016-Dec-02 08:17N 46°05' W 122°56'0 0.0
2016-Dec-02 07:33N 46°05' W 122°56'0 0.0
2016-Dec-02 06:33N 46°05' W 122°56'0 0.0
2016-Dec-02 05:33N 46°05' W 122°56'1 1.0
2016-Dec-02 04:33N 46°06' W 122°57'1 1.0
2016-Dec-02 03:33N 46°05' W 122°56'0 0.0
2016-Dec-02 02:34N 46°05' W 122°56'0 0.0
2016-Dec-02 01:34N 46°05' W 122°56'1 1.4
2016-Dec-02 00:34N 46°06' W 122°57'1 1.3
2016-Dec-01 23:31N 46°05' W 122°56'0 0.0
2016-Dec-01 22:31N 46°05' W 122°56'0 0.0
2016-Dec-01 21:31N 46°05' W 122°56'0 0.1
2016-Dec-01 20:33N 46°05' W 122°56'3 3.4
2016-Dec-01 19:33N 46°03' W 122°53'4 3.2
2016-Dec-01 18:27N 46°05' W 122°56'0 0.0
2016-Dec-01 17:33N 46°05' W 122°56'0 0.0
2016-Dec-01 16:33N 46°05' W 122°56'1 0.6
2016-Dec-01 15:33N 46°06' W 122°56'0 0.1
2016-Dec-01 14:34N 46°06' W 122°56'1 0.5
2016-Dec-01 13:34N 46°05' W 122°56'0 0.0
2016-Dec-01 12:34N 46°05' W 122°56'0 0.0
2016-Dec-01 11:33N 46°05' W 122°56'0 0.0
2016-Dec-01 10:33N 46°05' W 122°56'0 0.0
2016-Dec-01 09:34N 46°05' W 122°56'0 0.0
2016-Dec-01 08:33N 46°05' W 122°56'0 0.0
2016-Dec-01 07:33N 46°05' W 122°56'0 0.0
2016-Dec-01 06:34N 46°05' W 122°56'0 0.0
2016-Dec-01 05:33N 46°05' W 122°56'8 7.6
2016-Dec-01 04:33N 45°59' W 122°50'0 0.0
2016-Dec-01 03:33N 45°59' W 122°50'0 0.1
2016-Dec-01 02:34N 45°59' W 122°50'0 0.2
2016-Dec-01 01:34N 45°59' W 122°50'0 0.0
2016-Dec-01 00:33N 45°59' W 122°50'0 0.0
2016-Nov-30 23:34N 45°59' W 122°50'3 2.5
2016-Nov-30 22:33N 46°01' W 122°52'5 4.9
2016-Nov-30 21:33N 46°05' W 122°56'0 0.0
2016-Nov-30 20:33N 46°05' W 122°56'0 0.0
2016-Nov-30 19:27N 46°05' W 122°56'0 0.0
2016-Nov-30 18:33N 46°05' W 122°56'0 0.0
2016-Nov-30 17:33N 46°05' W 122°56'0 0.0
2016-Nov-30 16:33N 46°05' W 122°56'0 0.0
2016-Nov-30 15:33N 46°05' W 122°56'1 1.1
2016-Nov-30 14:33N 46°06' W 122°57'1 0.9
2016-Nov-30 13:34N 46°06' W 122°58'1 1.0
2016-Nov-30 12:34N 46°06' W 122°57'1 1.0
2016-Nov-30 11:33N 46°05' W 122°56'0 0.0
2016-Nov-30 10:33N 46°05' W 122°56'0 0.0
2016-Nov-30 09:34N 46°05' W 122°56'0 0.0
2016-Nov-30 08:33N 46°05' W 122°56'0 0.0
2016-Nov-30 07:33N 46°05' W 122°56'0 0.0
2016-Nov-30 06:33N 46°05' W 122°56'0 0.0
2016-Nov-30 05:34N 46°05' W 122°56'0 0.0
2016-Nov-30 04:34N 46°05' W 122°56'0 0.0
2016-Nov-30 03:34N 46°05' W 122°56'0 0.0
2016-Nov-30 02:34N 46°05' W 122°56'0 0.0
2016-Nov-30 01:33N 46°05' W 122°56'0 0.0
2016-Nov-30 00:34N 46°05' W 122°56'0 0.0
2016-Nov-29 23:33N 46°05' W 122°56'0 0.0
2016-Nov-29 22:33N 46°05' W 122°56'0 0.0
2016-Nov-29 21:34N 46°05' W 122°56'0 0.0
2016-Nov-29 20:34N 46°05' W 122°56'0 0.4
2016-Nov-29 19:33N 46°06' W 122°56'0 0.4
2016-Nov-29 18:33N 46°06' W 122°57'0 0.2
2016-Nov-29 17:33N 46°06' W 122°56'4 4.2
2016-Nov-29 16:33N 46°03' W 122°53'1212.3
2016-Nov-29 15:33N 45°51' W 122°47'1110.5
2016-Nov-29 14:33N 45°40' W 122°46'2 2.1
2016-Nov-29 13:33N 45°38' W 122°47'1 1.1
2016-Nov-29 12:33N 45°39' W 122°45'0 0.0
2016-Nov-29 11:33N 45°39' W 122°45'0 0.0
2016-Nov-29 10:33N 45°39' W 122°45'0 0.3
2016-Nov-29 09:34N 45°39' W 122°45'3 3.1
2016-Nov-29 08:34N 45°36' W 122°46'3 1.4
2016-Nov-29 06:33N 45°34' W 122°44'0 0.0
2016-Nov-29 05:18N 45°34' W 122°44'0 0.0
2016-Nov-29 04:30N 45°34' W 122°44'0 0.1
2016-Nov-29 02:33N 45°34' W 122°44'0 0.4
2016-Nov-29 01:32N 45°34' W 122°44'1 0.5
2016-Nov-29 00:31N 45°34' W 122°44'0 0.0
2016-Nov-28 23:31N 45°34' W 122°44'0 0.0
2016-Nov-28 22:31N 45°34' W 122°44'0 0.0
2016-Nov-28 21:28N 45°34' W 122°44'0 0.0
2016-Nov-28 20:31N 45°34' W 122°44'3 2.6
2016-Nov-28 19:33N 45°32' W 122°41'3 2.5
2016-Nov-28 18:34N 45°34' W 122°44'0 0.1
2016-Nov-28 17:32N 45°34' W 122°44'0 0.0
2016-Nov-28 16:32N 45°34' W 122°44'0 0.0
2016-Nov-28 15:26N 45°34' W 122°44'3 3.4
2016-Nov-28 14:34N 45°36' W 122°47'0 0.5
2016-Nov-28 13:34N 45°36' W 122°47'3 3.1
2016-Nov-28 12:26N 45°34' W 122°44'0 0.0
2016-Nov-28 10:17N 45°34' W 122°44'0 0.0
2016-Nov-28 09:11N 45°34' W 122°44'0 0.0
2016-Nov-28 08:32N 45°34' W 122°44'1 0.6
2016-Nov-28 07:33N 45°34' W 122°44'0 0.2
2016-Nov-28 06:34N 45°34' W 122°44'1 0.7
2016-Nov-28 05:34N 45°34' W 122°44'0 0.0
2016-Nov-28 04:34N 45°34' W 122°44'1 0.6
2016-Nov-28 03:34N 45°34' W 122°44'1 0.6
2016-Nov-28 02:29N 45°34' W 122°44'0 0.0
2016-Nov-28 01:31N 45°34' W 122°44'3 3.2
2016-Nov-28 00:33N 45°36' W 122°47'1 0.6
2016-Nov-27 23:33N 45°37' W 122°47'3 2.5
2016-Nov-27 22:33N 45°39' W 122°45'0 0.0
2016-Nov-27 21:34N 45°39' W 122°45'0 0.0
2016-Nov-27 20:33N 45°39' W 122°45'0 0.0
2016-Nov-27 19:33N 45°39' W 122°45'1 0.8
2016-Nov-27 18:34N 45°38' W 122°44'1 0.8
2016-Nov-27 17:34N 45°39' W 122°45'0 0.0
2016-Nov-27 16:33N 45°39' W 122°45'0 0.0
2016-Nov-27 15:33N 45°39' W 122°45'0 0.0
2016-Nov-27 14:34N 45°39' W 122°45'0 0.0
2016-Nov-27 13:34N 45°39' W 122°45'0 0.0
2016-Nov-27 12:34N 45°39' W 122°45'0 0.0
2016-Nov-27 11:34N 45°39' W 122°45'3 3.2
2016-Nov-27 10:34N 45°36' W 122°46'3 2.7
2016-Nov-27 09:33N 45°34' W 122°44'1 1.0
2016-Nov-27 08:34N 45°34' W 122°45'1 1.0
2016-Nov-27 07:31N 45°34' W 122°44'0 0.0
2016-Nov-27 06:28N 45°34' W 122°44'0 0.0
2016-Nov-27 05:31N 45°34' W 122°44'0 0.5
2016-Nov-27 04:33N 45°34' W 122°44'5 5.0
2016-Nov-27 03:33N 45°39' W 122°46'1 0.8
2016-Nov-27 02:33N 45°39' W 122°45'0 0.0
2016-Nov-27 01:33N 45°39' W 122°45'2 2.1
2016-Nov-27 00:33N 45°38' W 122°42'2 2.1
2016-Nov-26 23:33N 45°39' W 122°45'0 0.0
2016-Nov-26 22:32N 45°39' W 122°45'0 0.0
2016-Nov-26 21:31N 45°39' W 122°45'0 0.0
2016-Nov-26 20:31N 45°39' W 122°45'0 0.0
2016-Nov-26 19:31N 45°39' W 122°45'0 0.0
2016-Nov-26 18:31N 45°39' W 122°45'0 0.0
2016-Nov-26 17:31N 45°39' W 122°45'0 0.0
2016-Nov-26 16:31N 45°39' W 122°45'0 0.0
2016-Nov-26 15:31N 45°39' W 122°45'0 0.0
2016-Nov-26 14:31N 45°39' W 122°45'0 0.0
2016-Nov-26 13:31N 45°39' W 122°45'0 0.0
2016-Nov-26 12:31N 45°39' W 122°45'0 0.0
2016-Nov-26 11:31N 45°39' W 122°45'0 0.0
2016-Nov-26 10:31N 45°39' W 122°45'0 0.0
2016-Nov-26 09:31N 45°39' W 122°45'2 2.3
2016-Nov-26 08:33N 45°38' W 122°42'0 0.2
2016-Nov-26 07:33N 45°38' W 122°42'1 0.6
2016-Nov-26 06:33N 45°38' W 122°43'1 0.5
2016-Nov-26 05:33N 45°38' W 122°44'0 0.0
2016-Nov-26 04:34N 45°38' W 122°44'0 0.0
2016-Nov-26 03:33N 45°38' W 122°44'0 0.0
2016-Nov-26 02:34N 45°38' W 122°44'0 0.0
2016-Nov-26 01:33N 45°38' W 122°44'0 0.3
2016-Nov-26 00:34N 45°38' W 122°43'1 1.3
2016-Nov-25 23:34N 45°39' W 122°45'0 0.0
2016-Nov-25 22:33N 45°39' W 122°45'0 0.0
2016-Nov-25 21:33N 45°39' W 122°45'0 0.0
2016-Nov-25 20:33N 45°39' W 122°45'0 0.0
2016-Nov-25 19:34N 45°39' W 122°45'0 0.0
2016-Nov-25 18:33N 45°39' W 122°45'0 0.0
2016-Nov-25 17:33N 45°39' W 122°45'0 0.0
2016-Nov-25 16:33N 45°39' W 122°45'0 0.0
2016-Nov-25 15:33N 45°39' W 122°45'0 0.0
2016-Nov-25 13:33N 45°39' W 122°45'0 0.0
2016-Nov-25 12:33N 45°39' W 122°45'0 0.0
2016-Nov-25 11:33N 45°39' W 122°45'0 0.0
2016-Nov-25 10:33N 45°39' W 122°45'0 0.0
2016-Nov-25 09:33N 45°39' W 122°45'0 0.0
2016-Nov-25 08:33N 45°39' W 122°45'0 0.0
2016-Nov-25 07:33N 45°39' W 122°45'0 0.0
2016-Nov-25 06:33N 45°39' W 122°45'0 0.0
2016-Nov-25 05:33N 45°39' W 122°45'0 0.0
2016-Nov-25 04:33N 45°39' W 122°45'0 0.0
2016-Nov-25 03:33N 45°39' W 122°45'0 0.0
2016-Nov-25 02:33N 45°39' W 122°45'0 0.0
2016-Nov-25 01:33N 45°39' W 122°45'6 5.6
2016-Nov-25 00:33N 45°44' W 122°46'6 6.4
2016-Nov-24 23:33N 45°50' W 122°47'6 6.4
2016-Nov-24 22:33N 45°57' W 122°49'7 6.8
2016-Nov-24 21:33N 46°03' W 122°53'5 4.5
2016-Nov-24 20:33N 46°06' W 122°57'1 0.6
2016-Nov-24 19:33N 46°06' W 122°57'4 4.1
2016-Nov-24 18:33N 46°03' W 122°53'0 0.2
2016-Nov-24 17:33N 46°03' W 122°53'1 0.7
2016-Nov-24 16:33N 46°03' W 122°53'3 3.0
2016-Nov-24 15:33N 46°05' W 122°56'0 0.0
2016-Nov-24 14:33N 46°05' W 122°56'0 0.0
2016-Nov-24 13:33N 46°05' W 122°56'0 0.0
2016-Nov-24 12:33N 46°05' W 122°56'0 0.0
2016-Nov-24 11:33N 46°05' W 122°56'0 0.0
2016-Nov-24 10:33N 46°05' W 122°56'0 0.0
2016-Nov-24 09:33N 46°05' W 122°56'0 0.0
2016-Nov-24 08:33N 46°05' W 122°56'0 0.0
2016-Nov-24 07:33N 46°05' W 122°56'0 0.0
2016-Nov-24 06:33N 46°05' W 122°56'0 0.0
2016-Nov-24 05:33N 46°05' W 122°56'0 0.0
2016-Nov-24 04:33N 46°05' W 122°56'0 0.0
2016-Nov-24 03:33N 46°05' W 122°56'0 0.0
2016-Nov-24 02:33N 46°05' W 122°56'0 0.0
2016-Nov-24 01:33N 46°05' W 122°56'0 0.0
2016-Nov-24 00:33N 46°05' W 122°56'0 0.0
2016-Nov-23 23:33N 46°05' W 122°56'1 0.7
2016-Nov-23 22:33N 46°06' W 122°57'  
Track history (hours):
 
Tides and Currents Weather Stations Pressure Air Temp Water Temp Dewpoint Dewpoint Depression Visibility Wind Speed Wind Dir Waves Ship Positions

Portland

Owner: Shaver Transportation Company, Portland, OR. More information available from US FCC via Universal Licensing System and Coast Guard Vessel Documentation Center.

Last reported at 2016-Dec-03 21:34 UTC. Time now 2016-Dec-03 21:54 UTC.
Position N 45°46' W 122°46'.

Length 27 m; draft 4 m.

Type: Towing. MMSI: 367315814.

Date/timePositionNaut miles runAvg speedWind from/ knotsBaromVisibWave heightAir tempDewpointWater temp
2016-Dec-03 21:34N 45°46' W 122°46'1010.4
2016-Dec-03 20:33N 45°56' W 122°48'3 2.8
2016-Dec-03 19:34N 45°59' W 122°50'0 0.1
2016-Dec-03 18:33N 45°59' W 122°50'3 3.4
2016-Dec-03 17:33N 46°02' W 122°53'5 4.7
2016-Dec-03 16:34N 46°06' W 122°56'0 0.2
2016-Dec-03 15:33N 46°06' W 122°56'1 0.5
2016-Dec-03 14:33N 46°05' W 122°56'0 0.0
2016-Dec-03 13:34N 46°05' W 122°56'0 0.0
2016-Dec-03 12:33N 46°05' W 122°56'0 0.0
2016-Dec-03 11:33N 46°05' W 122°56'0 0.0
2016-Dec-03 10:34N 46°05' W 122°56'0 0.0
2016-Dec-03 09:34N 46°05' W 122°56'0 0.0
2016-Dec-03 08:34N 46°05' W 122°56'0 0.0
2016-Dec-03 07:34N 46°05' W 122°56'0 0.0
2016-Dec-03 06:34N 46°05' W 122°56'0 0.0
2016-Dec-03 05:34N 46°05' W 122°56'0 0.0
2016-Dec-03 04:34N 46°05' W 122°56'0 0.0
2016-Dec-03 03:33N 46°05' W 122°56'0 0.0
2016-Dec-03 02:34N 46°05' W 122°56'0 0.0
2016-Dec-03 01:33N 46°05' W 122°56'0 0.0
2016-Dec-03 00:33N 46°05' W 122°56'0 0.0
2016-Dec-02 23:34N 46°05' W 122°56'0 0.0
2016-Dec-02 22:33N 46°05' W 122°56'0 0.0
2016-Dec-02 21:34N 46°05' W 122°56'0 0.0
2016-Dec-02 20:33N 46°05' W 122°56'0 0.0
2016-Dec-02 19:33N 46°05' W 122°56'0 0.0
2016-Dec-02 18:34N 46°05' W 122°56'0 0.0
2016-Dec-02 17:33N 46°05' W 122°56'0 0.0
2016-Dec-02 16:34N 46°05' W 122°56'0 0.0
2016-Dec-02 15:33N 46°05' W 122°56'0 0.0
2016-Dec-02 14:33N 46°05' W 122°56'0 0.0
2016-Dec-02 13:34N 46°05' W 122°56'0 0.0
2016-Dec-02 12:33N 46°05' W 122°56'0 0.0
2016-Dec-02 11:33N 46°05' W 122°56'0 0.0
2016-Dec-02 10:33N 46°05' W 122°56'0 0.0
2016-Dec-02 09:26N 46°05' W 122°56'0 0.0
2016-Dec-02 08:17N 46°05' W 122°56'0 0.0
2016-Dec-02 07:33N 46°05' W 122°56'0 0.0
2016-Dec-02 06:33N 46°05' W 122°56'0 0.0
2016-Dec-02 05:33N 46°05' W 122°56'1 1.0
2016-Dec-02 04:33N 46°06' W 122°57'1 1.0
2016-Dec-02 03:33N 46°05' W 122°56'0 0.0
2016-Dec-02 02:34N 46°05' W 122°56'0 0.0
2016-Dec-02 01:34N 46°05' W 122°56'1 1.4
2016-Dec-02 00:34N 46°06' W 122°57'1 1.3
2016-Dec-01 23:31N 46°05' W 122°56'0 0.0
2016-Dec-01 22:31N 46°05' W 122°56'0 0.0
2016-Dec-01 21:31N 46°05' W 122°56'0 0.1
2016-Dec-01 20:33N 46°05' W 122°56'3 3.4
2016-Dec-01 19:33N 46°03' W 122°53'4 3.2
2016-Dec-01 18:27N 46°05' W 122°56'0 0.0
2016-Dec-01 17:33N 46°05' W 122°56'0 0.0
2016-Dec-01 16:33N 46°05' W 122°56'1 0.6
2016-Dec-01 15:33N 46°06' W 122°56'0 0.1
2016-Dec-01 14:34N 46°06' W 122°56'1 0.5
2016-Dec-01 13:34N 46°05' W 122°56'0 0.0
2016-Dec-01 12:34N 46°05' W 122°56'0 0.0
2016-Dec-01 11:33N 46°05' W 122°56'0 0.0
2016-Dec-01 10:33N 46°05' W 122°56'0 0.0
2016-Dec-01 09:34N 46°05' W 122°56'0 0.0
2016-Dec-01 08:33N 46°05' W 122°56'0 0.0
2016-Dec-01 07:33N 46°05' W 122°56'0 0.0
2016-Dec-01 06:34N 46°05' W 122°56'0 0.0
2016-Dec-01 05:33N 46°05' W 122°56'8 7.6
2016-Dec-01 04:33N 45°59' W 122°50'0 0.0
2016-Dec-01 03:33N 45°59' W 122°50'0 0.1
2016-Dec-01 02:34N 45°59' W 122°50'0 0.2
2016-Dec-01 01:34N 45°59' W 122°50'0 0.0
2016-Dec-01 00:33N 45°59' W 122°50'0 0.0
2016-Nov-30 23:34N 45°59' W 122°50'3 2.5
2016-Nov-30 22:33N 46°01' W 122°52'5 4.9
2016-Nov-30 21:33N 46°05' W 122°56'0 0.0
2016-Nov-30 20:33N 46°05' W 122°56'0 0.0
2016-Nov-30 19:27N 46°05' W 122°56'0 0.0
2016-Nov-30 18:33N 46°05' W 122°56'0 0.0
2016-Nov-30 17:33N 46°05' W 122°56'0 0.0
2016-Nov-30 16:33N 46°05' W 122°56'0 0.0
2016-Nov-30 15:33N 46°05' W 122°56'1 1.1
2016-Nov-30 14:33N 46°06' W 122°57'1 0.9
2016-Nov-30 13:34N 46°06' W 122°58'1 1.0
2016-Nov-30 12:34N 46°06' W 122°57'1 1.0
2016-Nov-30 11:33N 46°05' W 122°56'0 0.0
2016-Nov-30 10:33N 46°05' W 122°56'0 0.0
2016-Nov-30 09:34N 46°05' W 122°56'0 0.0
2016-Nov-30 08:33N 46°05' W 122°56'0 0.0
2016-Nov-30 07:33N 46°05' W 122°56'0 0.0
2016-Nov-30 06:33N 46°05' W 122°56'0 0.0
2016-Nov-30 05:34N 46°05' W 122°56'0 0.0
2016-Nov-30 04:34N 46°05' W 122°56'0 0.0
2016-Nov-30 03:34N 46°05' W 122°56'0 0.0
2016-Nov-30 02:34N 46°05' W 122°56'0 0.0
2016-Nov-30 01:33N 46°05' W 122°56'0 0.0
2016-Nov-30 00:34N 46°05' W 122°56'0 0.0
2016-Nov-29 23:33N 46°05' W 122°56'0 0.0
2016-Nov-29 22:33N 46°05' W 122°56'0 0.0
2016-Nov-29 21:34N 46°05' W 122°56'0 0.0
2016-Nov-29 20:34N 46°05' W 122°56'0 0.4
2016-Nov-29 19:33N 46°06' W 122°56'0 0.4
2016-Nov-29 18:33N 46°06' W 122°57'0 0.2
2016-Nov-29 17:33N 46°06' W 122°56'4 4.2
2016-Nov-29 16:33N 46°03' W 122°53'1212.3
2016-Nov-29 15:33N 45°51' W 122°47'1110.5
2016-Nov-29 14:33N 45°40' W 122°46'2 2.1
2016-Nov-29 13:33N 45°38' W 122°47'1 1.1
2016-Nov-29 12:33N 45°39' W 122°45'0 0.0
2016-Nov-29 11:33N 45°39' W 122°45'0 0.0
2016-Nov-29 10:33N 45°39' W 122°45'0 0.3
2016-Nov-29 09:34N 45°39' W 122°45'3 3.1
2016-Nov-29 08:34N 45°36' W 122°46'3 1.4
2016-Nov-29 06:33N 45°34' W 122°44'0 0.0
2016-Nov-29 05:18N 45°34' W 122°44'0 0.0
2016-Nov-29 04:30N 45°34' W 122°44'0 0.1
2016-Nov-29 02:33N 45°34' W 122°44'0 0.4
2016-Nov-29 01:32N 45°34' W 122°44'1 0.5
2016-Nov-29 00:31N 45°34' W 122°44'0 0.0
2016-Nov-28 23:31N 45°34' W 122°44'0 0.0
2016-Nov-28 22:31N 45°34' W 122°44'0 0.0
2016-Nov-28 21:28N 45°34' W 122°44'0 0.0
2016-Nov-28 20:31N 45°34' W 122°44'3 2.6
2016-Nov-28 19:33N 45°32' W 122°41'3 2.5
2016-Nov-28 18:34N 45°34' W 122°44'0 0.1
2016-Nov-28 17:32N 45°34' W 122°44'0 0.0
2016-Nov-28 16:32N 45°34' W 122°44'0 0.0
2016-Nov-28 15:26N 45°34' W 122°44'3 3.4
2016-Nov-28 14:34N 45°36' W 122°47'0 0.5
2016-Nov-28 13:34N 45°36' W 122°47'3 3.1
2016-Nov-28 12:26N 45°34' W 122°44'0 0.0
2016-Nov-28 10:17N 45°34' W 122°44'0 0.0
2016-Nov-28 09:11N 45°34' W 122°44'0 0.0
2016-Nov-28 08:32N 45°34' W 122°44'1 0.6
2016-Nov-28 07:33N 45°34' W 122°44'0 0.2
2016-Nov-28 06:34N 45°34' W 122°44'1 0.7
2016-Nov-28 05:34N 45°34' W 122°44'0 0.0
2016-Nov-28 04:34N 45°34' W 122°44'1 0.6
2016-Nov-28 03:34N 45°34' W 122°44'1 0.6
2016-Nov-28 02:29N 45°34' W 122°44'0 0.0
2016-Nov-28 01:31N 45°34' W 122°44'3 3.2
2016-Nov-28 00:33N 45°36' W 122°47'1 0.6
2016-Nov-27 23:33N 45°37' W 122°47'3 2.5
2016-Nov-27 22:33N 45°39' W 122°45'0 0.0
2016-Nov-27 21:34N 45°39' W 122°45'0 0.0
2016-Nov-27 20:33N 45°39' W 122°45'0 0.0
2016-Nov-27 19:33N 45°39' W 122°45'1 0.8
2016-Nov-27 18:34N 45°38' W 122°44'1 0.8
2016-Nov-27 17:34N 45°39' W 122°45'0 0.0
2016-Nov-27 16:33N 45°39' W 122°45'0 0.0
2016-Nov-27 15:33N 45°39' W 122°45'0 0.0
2016-Nov-27 14:34N 45°39' W 122°45'0 0.0
2016-Nov-27 13:34N 45°39' W 122°45'0 0.0
2016-Nov-27 12:34N 45°39' W 122°45'0 0.0
2016-Nov-27 11:34N 45°39' W 122°45'3 3.2
2016-Nov-27 10:34N 45°36' W 122°46'3 2.7
2016-Nov-27 09:33N 45°34' W 122°44'1 1.0
2016-Nov-27 08:34N 45°34' W 122°45'1 1.0
2016-Nov-27 07:31N 45°34' W 122°44'0 0.0
2016-Nov-27 06:28N 45°34' W 122°44'0 0.0
2016-Nov-27 05:31N 45°34' W 122°44'0 0.5
2016-Nov-27 04:33N 45°34' W 122°44'5 5.0
2016-Nov-27 03:33N 45°39' W 122°46'1 0.8
2016-Nov-27 02:33N 45°39' W 122°45'0 0.0
2016-Nov-27 01:33N 45°39' W 122°45'2 2.1
2016-Nov-27 00:33N 45°38' W 122°42'2 2.1
2016-Nov-26 23:33N 45°39' W 122°45'0 0.0
2016-Nov-26 22:32N 45°39' W 122°45'0 0.0
2016-Nov-26 21:31N 45°39' W 122°45'0 0.0
2016-Nov-26 20:31N 45°39' W 122°45'0 0.0
2016-Nov-26 19:31N 45°39' W 122°45'0 0.0
2016-Nov-26 18:31N 45°39' W 122°45'0 0.0
2016-Nov-26 17:31N 45°39' W 122°45'0 0.0
2016-Nov-26 16:31N 45°39' W 122°45'0 0.0
2016-Nov-26 15:31N 45°39' W 122°45'0 0.0
2016-Nov-26 14:31N 45°39' W 122°45'0 0.0
2016-Nov-26 13:31N 45°39' W 122°45'0 0.0
2016-Nov-26 12:31N 45°39' W 122°45'0 0.0
2016-Nov-26 11:31N 45°39' W 122°45'0 0.0
2016-Nov-26 10:31N 45°39' W 122°45'0 0.0
2016-Nov-26 09:31N 45°39' W 122°45'2 2.3
2016-Nov-26 08:33N 45°38' W 122°42'0 0.2
2016-Nov-26 07:33N 45°38' W 122°42'1 0.6
2016-Nov-26 06:33N 45°38' W 122°43'1 0.5
2016-Nov-26 05:33N 45°38' W 122°44'0 0.0
2016-Nov-26 04:34N 45°38' W 122°44'0 0.0
2016-Nov-26 03:33N 45°38' W 122°44'0 0.0
2016-Nov-26 02:34N 45°38' W 122°44'0 0.0
2016-Nov-26 01:33N 45°38' W 122°44'0 0.3
2016-Nov-26 00:34N 45°38' W 122°43'1 1.3
2016-Nov-25 23:34N 45°39' W 122°45'0 0.0
2016-Nov-25 22:33N 45°39' W 122°45'0 0.0
2016-Nov-25 21:33N 45°39' W 122°45'0 0.0
2016-Nov-25 20:33N 45°39' W 122°45'0 0.0
2016-Nov-25 19:34N 45°39' W 122°45'0 0.0
2016-Nov-25 18:33N 45°39' W 122°45'0 0.0
2016-Nov-25 17:33N 45°39' W 122°45'0 0.0
2016-Nov-25 16:33N 45°39' W 122°45'0 0.0
2016-Nov-25 15:33N 45°39' W 122°45'0 0.0
2016-Nov-25 13:33N 45°39' W 122°45'0 0.0
2016-Nov-25 12:33N 45°39' W 122°45'0 0.0
2016-Nov-25 11:33N 45°39' W 122°45'0 0.0
2016-Nov-25 10:33N 45°39' W 122°45'0 0.0
2016-Nov-25 09:33N 45°39' W 122°45'0 0.0
2016-Nov-25 08:33N 45°39' W 122°45'0 0.0
2016-Nov-25 07:33N 45°39' W 122°45'0 0.0
2016-Nov-25 06:33N 45°39' W 122°45'0 0.0
2016-Nov-25 05:33N 45°39' W 122°45'0 0.0
2016-Nov-25 04:33N 45°39' W 122°45'0 0.0
2016-Nov-25 03:33N 45°39' W 122°45'0 0.0
2016-Nov-25 02:33N 45°39' W 122°45'0 0.0
2016-Nov-25 01:33N 45°39' W 122°45'6 5.6
2016-Nov-25 00:33N 45°44' W 122°46'6 6.4
2016-Nov-24 23:33N 45°50' W 122°47'6 6.4
2016-Nov-24 22:33N 45°57' W 122°49'7 6.8
2016-Nov-24 21:33N 46°03' W 122°53'5 4.5
2016-Nov-24 20:33N 46°06' W 122°57'1 0.6
2016-Nov-24 19:33N 46°06' W 122°57'4 4.1
2016-Nov-24 18:33N 46°03' W 122°53'0 0.2
2016-Nov-24 17:33N 46°03' W 122°53'1 0.7
2016-Nov-24 16:33N 46°03' W 122°53'3 3.0
2016-Nov-24 15:33N 46°05' W 122°56'0 0.0
2016-Nov-24 14:33N 46°05' W 122°56'0 0.0
2016-Nov-24 13:33N 46°05' W 122°56'0 0.0
2016-Nov-24 12:33N 46°05' W 122°56'0 0.0
2016-Nov-24 11:33N 46°05' W 122°56'0 0.0
2016-Nov-24 10:33N 46°05' W 122°56'0 0.0
2016-Nov-24 09:33N 46°05' W 122°56'0 0.0
2016-Nov-24 08:33N 46°05' W 122°56'0 0.0
2016-Nov-24 07:33N 46°05' W 122°56'0 0.0
2016-Nov-24 06:33N 46°05' W 122°56'0 0.0
2016-Nov-24 05:33N 46°05' W 122°56'0 0.0
2016-Nov-24 04:33N 46°05' W 122°56'0 0.0
2016-Nov-24 03:33N 46°05' W 122°56'0 0.0
2016-Nov-24 02:33N 46°05' W 122°56'0 0.0
2016-Nov-24 01:33N 46°05' W 122°56'0 0.0
2016-Nov-24 00:33N 46°05' W 122°56'0 0.0
2016-Nov-23 23:33N 46°05' W 122°56'1 0.7
2016-Nov-23 22:33N 46°06' W 122°57'  

Dump ship's entire track history